sensor_id;sensor_type;location;lat;lon;timestamp;P1;durP1;ratioP1;P2;durP2;ratioP2
69053;SDS011;56125;52.242;4.756;2022-11-15T00:00:10;11.20;;;6.40;;
69053;SDS011;56125;52.242;4.756;2022-11-15T00:05:11;12.50;;;6.18;;
69053;SDS011;56125;52.242;4.756;2022-11-15T00:10:12;14.43;;;6.85;;
69053;SDS011;56125;52.242;4.756;2022-11-15T00:15:13;13.18;;;6.55;;
69053;SDS011;56125;52.242;4.756;2022-11-15T00:20:14;10.55;;;6.13;;
69053;SDS011;56125;52.242;4.756;2022-11-15T00:25:16;11.30;;;6.43;;
69053;SDS011;56125;52.242;4.756;2022-11-15T00:30:17;14.18;;;6.63;;
69053;SDS011;56125;52.242;4.756;2022-11-15T00:35:18;13.73;;;6.53;;
69053;SDS011;56125;52.242;4.756;2022-11-15T00:40:20;13.13;;;5.85;;
69053;SDS011;56125;52.242;4.756;2022-11-15T00:45:21;12.77;;;6.43;;
69053;SDS011;56125;52.242;4.756;2022-11-15T00:50:23;15.57;;;6.97;;
69053;SDS011;56125;52.242;4.756;2022-11-15T00:55:24;11.75;;;6.43;;
69053;SDS011;56125;52.242;4.756;2022-11-15T01:00:25;12.57;;;6.10;;
69053;SDS011;56125;52.242;4.756;2022-11-15T01:05:26;13.77;;;7.10;;
69053;SDS011;56125;52.242;4.756;2022-11-15T01:10:27;14.38;;;6.97;;
69053;SDS011;56125;52.242;4.756;2022-11-15T01:15:28;11.13;;;5.82;;
69053;SDS011;56125;52.242;4.756;2022-11-15T01:20:29;11.45;;;6.15;;
69053;SDS011;56125;52.242;4.756;2022-11-15T01:25:30;12.82;;;6.63;;
69053;SDS011;56125;52.242;4.756;2022-11-15T01:30:31;11.77;;;5.88;;
69053;SDS011;56125;52.242;4.756;2022-11-15T01:35:32;12.13;;;6.30;;
69053;SDS011;56125;52.242;4.756;2022-11-15T01:40:33;11.73;;;5.75;;
69053;SDS011;56125;52.242;4.756;2022-11-15T01:45:34;11.90;;;5.85;;
69053;SDS011;56125;52.242;4.756;2022-11-15T01:50:35;11.65;;;5.55;;
69053;SDS011;56125;52.242;4.756;2022-11-15T01:55:36;11.35;;;5.78;;
69053;SDS011;56125;52.242;4.756;2022-11-15T02:00:38;11.57;;;6.38;;
69053;SDS011;56125;52.242;4.756;2022-11-15T02:05:39;11.68;;;5.60;;
69053;SDS011;56125;52.242;4.756;2022-11-15T02:10:41;11.90;;;6.20;;
69053;SDS011;56125;52.242;4.756;2022-11-15T02:21:37;11.93;;;6.13;;
69053;SDS011;56125;52.242;4.756;2022-11-15T02:26:52;12.80;;;6.10;;
69053;SDS011;56125;52.242;4.756;2022-11-15T02:32:20;13.32;;;6.00;;
69053;SDS011;56125;52.242;4.756;2022-11-15T02:37:39;11.82;;;6.55;;
69053;SDS011;56125;52.242;4.756;2022-11-15T02:42:50;12.13;;;6.18;;
69053;SDS011;56125;52.242;4.756;2022-11-15T02:48:15;12.02;;;6.30;;
69053;SDS011;56125;52.242;4.756;2022-11-15T02:53:17;11.38;;;5.50;;
69053;SDS011;56125;52.242;4.756;2022-11-15T03:03:41;14.82;;;6.97;;
69053;SDS011;56125;52.242;4.756;2022-11-15T03:09:39;11.35;;;5.78;;
69053;SDS011;56125;52.242;4.756;2022-11-15T03:14:36;13.32;;;6.80;;
69053;SDS011;56125;52.242;4.756;2022-11-15T03:19:53;12.68;;;5.88;;
69053;SDS011;56125;52.242;4.756;2022-11-15T03:24:57;12.35;;;6.13;;
69053;SDS011;56125;52.242;4.756;2022-11-15T03:30:02;13.18;;;6.25;;
69053;SDS011;56125;52.242;4.756;2022-11-15T03:35:18;14.27;;;6.75;;
69053;SDS011;56125;52.242;4.756;2022-11-15T03:40:24;15.95;;;6.80;;
69053;SDS011;56125;52.242;4.756;2022-11-15T03:45:35;12.60;;;6.53;;
69053;SDS011;56125;52.242;4.756;2022-11-15T03:50:44;12.43;;;6.65;;
69053;SDS011;56125;52.242;4.756;2022-11-15T03:55:46;11.65;;;6.47;;
69053;SDS011;56125;52.242;4.756;2022-11-15T04:00:47;10.93;;;5.93;;
69053;SDS011;56125;52.242;4.756;2022-11-15T04:05:48;12.77;;;6.22;;
69053;SDS011;56125;52.242;4.756;2022-11-15T04:10:49;12.88;;;6.28;;
69053;SDS011;56125;52.242;4.756;2022-11-15T04:15:51;11.57;;;5.97;;
69053;SDS011;56125;52.242;4.756;2022-11-15T04:20:52;12.45;;;6.22;;
69053;SDS011;56125;52.242;4.756;2022-11-15T04:26:15;8.10;;;5.30;;
69053;SDS011;56125;52.242;4.756;2022-11-15T04:31:19;11.90;;;5.88;;
69053;SDS011;56125;52.242;4.756;2022-11-15T04:36:20;12.73;;;5.88;;
69053;SDS011;56125;52.242;4.756;2022-11-15T04:41:40;11.05;;;5.10;;
69053;SDS011;56125;52.242;4.756;2022-11-15T04:46:41;12.00;;;5.60;;
69053;SDS011;56125;52.242;4.756;2022-11-15T04:51:42;9.70;;;5.40;;
69053;SDS011;56125;52.242;4.756;2022-11-15T04:56:43;8.90;;;5.57;;
69053;SDS011;56125;52.242;4.756;2022-11-15T05:01:44;11.20;;;5.57;;
69053;SDS011;56125;52.242;4.756;2022-11-15T05:06:48;9.45;;;5.38;;
69053;SDS011;56125;52.242;4.756;2022-11-15T05:11:50;7.90;;;4.80;;
69053;SDS011;56125;52.242;4.756;2022-11-15T05:16:51;9.73;;;4.90;;
69053;SDS011;56125;52.242;4.756;2022-11-15T05:21:52;9.38;;;5.10;;
69053;SDS011;56125;52.242;4.756;2022-11-15T05:26:53;9.27;;;4.85;;
69053;SDS011;56125;52.242;4.756;2022-11-15T05:31:54;6.30;;;4.50;;
69053;SDS011;56125;52.242;4.756;2022-11-15T05:36:55;8.27;;;4.90;;
69053;SDS011;56125;52.242;4.756;2022-11-15T05:41:59;6.70;;;4.88;;
69053;SDS011;56125;52.242;4.756;2022-11-15T05:47:11;7.53;;;4.30;;
69053;SDS011;56125;52.242;4.756;2022-11-15T05:52:16;6.53;;;4.25;;
69053;SDS011;56125;52.242;4.756;2022-11-15T05:57:20;5.97;;;3.53;;
69053;SDS011;56125;52.242;4.756;2022-11-15T06:02:21;6.72;;;3.75;;
69053;SDS011;56125;52.242;4.756;2022-11-15T06:07:22;10.63;;;4.07;;
69053;SDS011;56125;52.242;4.756;2022-11-15T06:12:23;7.40;;;3.75;;
69053;SDS011;56125;52.242;4.756;2022-11-15T06:17:24;6.28;;;3.63;;
69053;SDS011;56125;52.242;4.756;2022-11-15T06:22:25;10.90;;;4.60;;
69053;SDS011;56125;52.242;4.756;2022-11-15T06:27:26;16.33;;;5.13;;
69053;SDS011;56125;52.242;4.756;2022-11-15T06:32:28;14.65;;;4.80;;
69053;SDS011;56125;52.242;4.756;2022-11-15T06:37:30;14.32;;;4.90;;
69053;SDS011;56125;52.242;4.756;2022-11-15T06:42:31;12.65;;;4.28;;
69053;SDS011;56125;52.242;4.756;2022-11-15T06:47:32;12.10;;;5.07;;
69053;SDS011;56125;52.242;4.756;2022-11-15T06:52:33;12.02;;;4.38;;
69053;SDS011;56125;52.242;4.756;2022-11-15T06:57:35;9.50;;;4.20;;
69053;SDS011;56125;52.242;4.756;2022-11-15T07:02:37;12.95;;;4.28;;
69053;SDS011;56125;52.242;4.756;2022-11-15T07:07:38;8.43;;;3.85;;
69053;SDS011;56125;52.242;4.756;2022-11-15T07:12:39;9.23;;;3.67;;
69053;SDS011;56125;52.242;4.756;2022-11-15T07:17:40;8.27;;;3.65;;
69053;SDS011;56125;52.242;4.756;2022-11-15T07:22:41;7.35;;;3.45;;
69053;SDS011;56125;52.242;4.756;2022-11-15T07:27:42;11.20;;;3.60;;
69053;SDS011;56125;52.242;4.756;2022-11-15T07:32:43;9.70;;;3.53;;
69053;SDS011;56125;52.242;4.756;2022-11-15T07:37:44;6.50;;;3.45;;
69053;SDS011;56125;52.242;4.756;2022-11-15T07:43:00;7.93;;;3.25;;
69053;SDS011;56125;52.242;4.756;2022-11-15T07:48:02;7.78;;;2.80;;
69053;SDS011;56125;52.242;4.756;2022-11-15T07:53:04;7.75;;;3.22;;
69053;SDS011;56125;52.242;4.756;2022-11-15T07:58:06;5.50;;;2.83;;
69053;SDS011;56125;52.242;4.756;2022-11-15T08:03:12;5.82;;;2.97;;
69053;SDS011;56125;52.242;4.756;2022-11-15T08:08:15;4.75;;;2.70;;
69053;SDS011;56125;52.242;4.756;2022-11-15T08:13:16;6.00;;;2.90;;
69053;SDS011;56125;52.242;4.756;2022-11-15T08:18:17;6.10;;;3.03;;
69053;SDS011;56125;52.242;4.756;2022-11-15T08:23:18;7.38;;;3.00;;
69053;SDS011;56125;52.242;4.756;2022-11-15T08:28:19;4.35;;;2.40;;
69053;SDS011;56125;52.242;4.756;2022-11-15T08:33:20;4.30;;;2.42;;
69053;SDS011;56125;52.242;4.756;2022-11-15T08:38:21;8.25;;;3.35;;
69053;SDS011;56125;52.242;4.756;2022-11-15T08:43:22;4.88;;;2.50;;
69053;SDS011;56125;52.242;4.756;2022-11-15T08:48:23;5.82;;;2.92;;
69053;SDS011;56125;52.242;4.756;2022-11-15T08:53:24;4.82;;;2.50;;
69053;SDS011;56125;52.242;4.756;2022-11-15T08:58:25;3.95;;;2.25;;
69053;SDS011;56125;52.242;4.756;2022-11-15T09:03:27;4.03;;;2.47;;
69053;SDS011;56125;52.242;4.756;2022-11-15T09:08:31;4.35;;;2.50;;
69053;SDS011;56125;52.242;4.756;2022-11-15T09:13:32;3.45;;;2.58;;
69053;SDS011;56125;52.242;4.756;2022-11-15T09:18:33;4.38;;;2.20;;
69053;SDS011;56125;52.242;4.756;2022-11-15T09:23:34;4.28;;;2.35;;
69053;SDS011;56125;52.242;4.756;2022-11-15T09:28:36;3.70;;;2.10;;
69053;SDS011;56125;52.242;4.756;2022-11-15T09:33:38;3.03;;;2.20;;
69053;SDS011;56125;52.242;4.756;2022-11-15T09:38:39;4.40;;;2.15;;
69053;SDS011;56125;52.242;4.756;2022-11-15T09:48:54;4.07;;;2.05;;
69053;SDS011;56125;52.242;4.756;2022-11-15T09:54:10;4.72;;;1.90;;
69053;SDS011;56125;52.242;4.756;2022-11-15T09:59:39;5.50;;;1.98;;
69053;SDS011;56125;52.242;4.756;2022-11-15T10:05:03;3.50;;;1.85;;
69053;SDS011;56125;52.242;4.756;2022-11-15T10:10:15;4.10;;;1.67;;
69053;SDS011;56125;52.242;4.756;2022-11-15T10:15:38;5.07;;;2.08;;
69053;SDS011;56125;52.242;4.756;2022-11-15T10:20:52;5.32;;;1.98;;
69053;SDS011;56125;52.242;4.756;2022-11-15T10:25:59;3.17;;;2.03;;
69053;SDS011;56125;52.242;4.756;2022-11-15T10:31:01;3.20;;;1.80;;
69053;SDS011;56125;52.242;4.756;2022-11-15T10:41:10;3.00;;;1.70;;
69053;SDS011;56125;52.242;4.756;2022-11-15T10:46:22;2.90;;;1.90;;
69053;SDS011;56125;52.242;4.756;2022-11-15T10:51:24;3.88;;;2.72;;
69053;SDS011;56125;52.242;4.756;2022-11-15T10:56:28;4.65;;;2.08;;
69053;SDS011;56125;52.242;4.756;2022-11-15T11:01:29;2.60;;;1.52;;
69053;SDS011;56125;52.242;4.756;2022-11-15T11:06:32;4.93;;;1.80;;
69053;SDS011;56125;52.242;4.756;2022-11-15T11:11:47;4.53;;;1.60;;
69053;SDS011;56125;52.242;4.756;2022-11-15T11:16:50;2.95;;;1.38;;
69053;SDS011;56125;52.242;4.756;2022-11-15T11:27:26;5.60;;;1.50;;
69053;SDS011;56125;52.242;4.756;2022-11-15T11:32:55;2.03;;;1.10;;
69053;SDS011;56125;52.242;4.756;2022-11-15T11:38:03;3.30;;;1.30;;
69053;SDS011;56125;52.242;4.756;2022-11-15T11:43:19;1.83;;;1.10;;
69053;SDS011;56125;52.242;4.756;2022-11-15T11:48:40;1.45;;;1.17;;
69053;SDS011;56125;52.242;4.756;2022-11-15T11:53:43;1.75;;;1.30;;
69053;SDS011;56125;52.242;4.756;2022-11-15T11:58:50;2.40;;;1.27;;
69053;SDS011;56125;52.242;4.756;2022-11-15T12:03:59;2.25;;;1.10;;
69053;SDS011;56125;52.242;4.756;2022-11-15T12:09:16;1.65;;;1.17;;
69053;SDS011;56125;52.242;4.756;2022-11-15T12:14:25;2.17;;;1.20;;
69053;SDS011;56125;52.242;4.756;2022-11-15T12:19:48;1.85;;;1.30;;
69053;SDS011;56125;52.242;4.756;2022-11-15T12:24:54;1.50;;;0.90;;
69053;SDS011;56125;52.242;4.756;2022-11-15T12:30:02;2.72;;;1.20;;
69053;SDS011;56125;52.242;4.756;2022-11-15T12:35:24;2.90;;;1.20;;
69053;SDS011;56125;52.242;4.756;2022-11-15T12:45:35;2.65;;;1.10;;
69053;SDS011;56125;52.242;4.756;2022-11-15T13:01:10;2.95;;;1.35;;
69053;SDS011;56125;52.242;4.756;2022-11-15T13:06:41;3.30;;;1.75;;
69053;SDS011;56125;52.242;4.756;2022-11-15T13:11:45;3.67;;;1.30;;
69053;SDS011;56125;52.242;4.756;2022-11-15T13:16:48;2.88;;;1.17;;
69053;SDS011;56125;52.242;4.756;2022-11-15T13:21:57;2.80;;;1.17;;
69053;SDS011;56125;52.242;4.756;2022-11-15T13:27:18;2.03;;;1.10;;
69053;SDS011;56125;52.242;4.756;2022-11-15T13:32:20;3.13;;;1.30;;
69053;SDS011;56125;52.242;4.756;2022-11-15T13:42:23;2.72;;;1.30;;
69053;SDS011;56125;52.242;4.756;2022-11-15T13:47:29;1.55;;;1.05;;
69053;SDS011;56125;52.242;4.756;2022-11-15T13:52:32;3.10;;;1.15;;
69053;SDS011;56125;52.242;4.756;2022-11-15T13:57:41;3.03;;;1.02;;
69053;SDS011;56125;52.242;4.756;2022-11-15T14:02:51;3.88;;;0.98;;
69053;SDS011;56125;52.242;4.756;2022-11-15T14:07:57;4.22;;;1.00;;
69053;SDS011;56125;52.242;4.756;2022-11-15T14:13:01;2.58;;;1.25;;
69053;SDS011;56125;52.242;4.756;2022-11-15T14:18:03;1.95;;;0.90;;
69053;SDS011;56125;52.242;4.756;2022-11-15T14:23:18;1.65;;;0.90;;
69053;SDS011;56125;52.242;4.756;2022-11-15T14:33:27;3.55;;;1.30;;
69053;SDS011;56125;52.242;4.756;2022-11-15T14:38:36;2.83;;;1.15;;
69053;SDS011;56125;52.242;4.756;2022-11-15T14:43:37;2.20;;;1.17;;
69053;SDS011;56125;52.242;4.756;2022-11-15T14:48:38;3.17;;;1.00;;
69053;SDS011;56125;52.242;4.756;2022-11-15T14:53:40;1.95;;;0.80;;
69053;SDS011;56125;52.242;4.756;2022-11-15T14:58:41;2.33;;;0.90;;
69053;SDS011;56125;52.242;4.756;2022-11-15T15:03:42;3.95;;;1.05;;
69053;SDS011;56125;52.242;4.756;2022-11-15T15:08:45;2.65;;;0.90;;
69053;SDS011;56125;52.242;4.756;2022-11-15T15:13:48;1.23;;;0.93;;
69053;SDS011;56125;52.242;4.756;2022-11-15T15:18:49;3.17;;;0.85;;
69053;SDS011;56125;52.242;4.756;2022-11-15T15:23:51;2.50;;;0.90;;
69053;SDS011;56125;52.242;4.756;2022-11-15T15:28:54;2.85;;;0.82;;
69053;SDS011;56125;52.242;4.756;2022-11-15T15:33:55;1.75;;;0.80;;
69053;SDS011;56125;52.242;4.756;2022-11-15T15:38:56;2.63;;;1.10;;
69053;SDS011;56125;52.242;4.756;2022-11-15T15:43:57;1.77;;;1.20;;
69053;SDS011;56125;52.242;4.756;2022-11-15T15:48:58;3.33;;;1.42;;
69053;SDS011;56125;52.242;4.756;2022-11-15T15:53:59;4.05;;;1.60;;
69053;SDS011;56125;52.242;4.756;2022-11-15T15:59:00;3.03;;;1.60;;
69053;SDS011;56125;52.242;4.756;2022-11-15T16:04:01;3.35;;;1.67;;
69053;SDS011;56125;52.242;4.756;2022-11-15T16:09:03;2.70;;;1.58;;
69053;SDS011;56125;52.242;4.756;2022-11-15T16:14:04;2.55;;;1.80;;
69053;SDS011;56125;52.242;4.756;2022-11-15T16:19:05;3.33;;;2.30;;
69053;SDS011;56125;52.242;4.756;2022-11-15T16:24:06;2.22;;;1.80;;
69053;SDS011;56125;52.242;4.756;2022-11-15T16:29:07;2.17;;;1.50;;
69053;SDS011;56125;52.242;4.756;2022-11-15T16:34:10;3.63;;;1.48;;
69053;SDS011;56125;52.242;4.756;2022-11-15T16:39:11;4.07;;;1.80;;
69053;SDS011;56125;52.242;4.756;2022-11-15T16:44:19;2.72;;;2.08;;
69053;SDS011;56125;52.242;4.756;2022-11-15T16:49:20;4.15;;;1.80;;
69053;SDS011;56125;52.242;4.756;2022-11-15T16:54:22;2.30;;;1.42;;
69053;SDS011;56125;52.242;4.756;2022-11-15T16:59:23;3.33;;;1.73;;
69053;SDS011;56125;52.242;4.756;2022-11-15T17:04:24;2.25;;;1.60;;
69053;SDS011;56125;52.242;4.756;2022-11-15T17:09:30;2.20;;;1.55;;
69053;SDS011;56125;52.242;4.756;2022-11-15T17:14:32;3.70;;;1.50;;
69053;SDS011;56125;52.242;4.756;2022-11-15T17:19:33;2.58;;;1.80;;
69053;SDS011;56125;52.242;4.756;2022-11-15T17:24:34;3.70;;;1.90;;
69053;SDS011;56125;52.242;4.756;2022-11-15T17:29:35;6.45;;;2.60;;
69053;SDS011;56125;52.242;4.756;2022-11-15T17:34:36;6.18;;;2.70;;
69053;SDS011;56125;52.242;4.756;2022-11-15T17:39:37;4.85;;;2.10;;
69053;SDS011;56125;52.242;4.756;2022-11-15T17:44:38;10.73;;;3.25;;
69053;SDS011;56125;52.242;4.756;2022-11-15T17:49:39;6.35;;;2.88;;
69053;SDS011;56125;52.242;4.756;2022-11-15T17:54:40;7.80;;;2.60;;
69053;SDS011;56125;52.242;4.756;2022-11-15T17:59:41;7.22;;;2.60;;
69053;SDS011;56125;52.242;4.756;2022-11-15T18:04:42;4.47;;;2.35;;
69053;SDS011;56125;52.242;4.756;2022-11-15T18:09:43;4.13;;;2.40;;
69053;SDS011;56125;52.242;4.756;2022-11-15T18:14:44;4.82;;;2.45;;
69053;SDS011;56125;52.242;4.756;2022-11-15T18:19:45;7.50;;;2.78;;
69053;SDS011;56125;52.242;4.756;2022-11-15T18:24:48;4.90;;;2.22;;
69053;SDS011;56125;52.242;4.756;2022-11-15T18:29:49;3.35;;;2.20;;
69053;SDS011;56125;52.242;4.756;2022-11-15T18:34:50;5.38;;;2.50;;
69053;SDS011;56125;52.242;4.756;2022-11-15T18:39:51;3.97;;;2.05;;
69053;SDS011;56125;52.242;4.756;2022-11-15T18:44:52;4.20;;;2.28;;
69053;SDS011;56125;52.242;4.756;2022-11-15T18:49:53;4.38;;;2.03;;
69053;SDS011;56125;52.242;4.756;2022-11-15T18:54:54;5.47;;;2.08;;
69053;SDS011;56125;52.242;4.756;2022-11-15T18:59:55;4.05;;;2.05;;
69053;SDS011;56125;52.242;4.756;2022-11-15T19:04:56;3.85;;;1.88;;
69053;SDS011;56125;52.242;4.756;2022-11-15T19:09:57;4.28;;;1.80;;
69053;SDS011;56125;52.242;4.756;2022-11-15T19:14:58;5.93;;;2.28;;
69053;SDS011;56125;52.242;4.756;2022-11-15T19:19:59;5.78;;;1.67;;
69053;SDS011;56125;52.242;4.756;2022-11-15T19:25:00;2.85;;;1.95;;
69053;SDS011;56125;52.242;4.756;2022-11-15T19:30:04;4.10;;;1.98;;
69053;SDS011;56125;52.242;4.756;2022-11-15T19:35:05;3.55;;;1.80;;
69053;SDS011;56125;52.242;4.756;2022-11-15T19:40:07;4.80;;;2.03;;
69053;SDS011;56125;52.242;4.756;2022-11-15T19:45:08;3.85;;;1.92;;
69053;SDS011;56125;52.242;4.756;2022-11-15T19:50:10;3.08;;;1.80;;
69053;SDS011;56125;52.242;4.756;2022-11-15T19:55:11;3.65;;;2.15;;
69053;SDS011;56125;52.242;4.756;2022-11-15T20:00:12;3.10;;;2.20;;
69053;SDS011;56125;52.242;4.756;2022-11-15T20:05:13;4.30;;;2.30;;
69053;SDS011;56125;52.242;4.756;2022-11-15T20:10:14;3.88;;;2.00;;
69053;SDS011;56125;52.242;4.756;2022-11-15T20:15:16;3.83;;;2.10;;
69053;SDS011;56125;52.242;4.756;2022-11-15T20:20:17;5.32;;;2.25;;
69053;SDS011;56125;52.242;4.756;2022-11-15T20:25:18;5.03;;;2.28;;
69053;SDS011;56125;52.242;4.756;2022-11-15T20:30:19;4.18;;;2.40;;
69053;SDS011;56125;52.242;4.756;2022-11-15T20:35:20;4.55;;;2.50;;
69053;SDS011;56125;52.242;4.756;2022-11-15T20:40:21;5.00;;;2.20;;
69053;SDS011;56125;52.242;4.756;2022-11-15T20:45:22;5.95;;;2.70;;
69053;SDS011;56125;52.242;4.756;2022-11-15T20:50:24;5.93;;;2.78;;
69053;SDS011;56125;52.242;4.756;2022-11-15T20:55:26;7.38;;;3.50;;
69053;SDS011;56125;52.242;4.756;2022-11-15T21:00:27;4.82;;;2.90;;
69053;SDS011;56125;52.242;4.756;2022-11-15T21:05:28;8.23;;;3.40;;
69053;SDS011;56125;52.242;4.756;2022-11-15T21:10:29;5.88;;;3.13;;
69053;SDS011;56125;52.242;4.756;2022-11-15T21:15:48;8.98;;;3.03;;
69053;SDS011;56125;52.242;4.756;2022-11-15T21:20:49;5.10;;;2.85;;
69053;SDS011;56125;52.242;4.756;2022-11-15T21:25:51;4.72;;;2.80;;
69053;SDS011;56125;52.242;4.756;2022-11-15T21:30:53;7.28;;;2.70;;
69053;SDS011;56125;52.242;4.756;2022-11-15T21:35:56;4.30;;;2.40;;
69053;SDS011;56125;52.242;4.756;2022-11-15T21:40:57;6.38;;;2.72;;
69053;SDS011;56125;52.242;4.756;2022-11-15T21:46:04;3.65;;;2.70;;
69053;SDS011;56125;52.242;4.756;2022-11-15T21:51:06;4.97;;;2.92;;
69053;SDS011;56125;52.242;4.756;2022-11-15T21:56:09;3.25;;;2.40;;
69053;SDS011;56125;52.242;4.756;2022-11-15T22:01:13;3.80;;;2.40;;
69053;SDS011;56125;52.242;4.756;2022-11-15T22:06:33;2.72;;;2.20;;
69053;SDS011;56125;52.242;4.756;2022-11-15T22:11:35;2.70;;;2.10;;
69053;SDS011;56125;52.242;4.756;2022-11-15T22:16:36;2.45;;;2.13;;
69053;SDS011;56125;52.242;4.756;2022-11-15T22:21:37;3.67;;;2.05;;
69053;SDS011;56125;52.242;4.756;2022-11-15T22:26:39;3.28;;;2.28;;
69053;SDS011;56125;52.242;4.756;2022-11-15T22:31:40;4.28;;;2.22;;
69053;SDS011;56125;52.242;4.756;2022-11-15T22:36:41;3.65;;;2.22;;
69053;SDS011;56125;52.242;4.756;2022-11-15T22:41:44;3.63;;;2.60;;
69053;SDS011;56125;52.242;4.756;2022-11-15T22:46:45;3.65;;;2.25;;
69053;SDS011;56125;52.242;4.756;2022-11-15T22:51:46;2.40;;;1.77;;
69053;SDS011;56125;52.242;4.756;2022-11-15T22:56:47;3.08;;;2.10;;
69053;SDS011;56125;52.242;4.756;2022-11-15T23:01:48;2.75;;;2.17;;
69053;SDS011;56125;52.242;4.756;2022-11-15T23:06:50;2.78;;;2.05;;
69053;SDS011;56125;52.242;4.756;2022-11-15T23:11:51;3.92;;;1.98;;
69053;SDS011;56125;52.242;4.756;2022-11-15T23:17:11;2.92;;;2.10;;
69053;SDS011;56125;52.242;4.756;2022-11-15T23:22:12;3.30;;;1.90;;
69053;SDS011;56125;52.242;4.756;2022-11-15T23:27:31;3.25;;;1.63;;
69053;SDS011;56125;52.242;4.756;2022-11-15T23:32:32;2.83;;;2.20;;
69053;SDS011;56125;52.242;4.756;2022-11-15T23:37:52;2.25;;;1.88;;
69053;SDS011;56125;52.242;4.756;2022-11-15T23:42:53;2.20;;;1.73;;
69053;SDS011;56125;52.242;4.756;2022-11-15T23:47:54;3.38;;;2.10;;
69053;SDS011;56125;52.242;4.756;2022-11-15T23:52:55;2.30;;;2.10;;
69053;SDS011;56125;52.242;4.756;2022-11-15T23:57:56;1.90;;;1.70;;
